Time;durP1;ratioP1;P1;durP2;ratioP2;P2;SDS_P1;SDS_P2;PMS_P1;PMS_P2;Temp;Humidity;BMP_temperature;BMP_pressure;BME280_temperature;BME280_humidity;BME280_pressure;Samples;Min_cycle;Max_cycle;Signal;HPM_P1;HPM_P2
2022/05/23 00:01:45;;;;;;;;;21.00;19.75;;;;;25.54;53.86;98296.06;5093861;27;45430;-68
2022/05/23 00:04:10;;;;;;;;;19.75;18.25;;;;;25.44;53.86;98284.66;5087378;27;45411;-68
2022/05/23 00:06:36;;;;;;;;;22.25;21.00;;;;;25.36;54.56;98283.66;5089169;27;45516;-68
2022/05/23 00:09:03;;;;;;;;;20.00;20.00;;;;;25.31;54.47;98288.75;5081128;27;45502;-68
2022/05/23 00:11:28;;;;;;;;;15.00;14.50;;;;;25.26;54.01;98293.84;5085556;27;45364;-69
2022/05/23 00:13:53;;;;;;;;;20.00;19.00;;;;;25.22;55.46;98288.97;5084814;27;45793;-68
2022/05/23 00:16:22;;;;;;;;;20.75;20.00;;;;;25.18;55.63;98296.56;5079653;27;45484;-69
2022/05/23 00:18:48;;;;;;;;;22.75;21.00;;;;;25.12;55.76;98299.97;5092027;27;46399;-69
2022/05/23 00:21:15;;;;;;;;;20.00;16.00;;;;;25.05;56.68;98298.97;5076902;27;45445;-68
2022/05/23 00:23:41;;;;;;;;;16.25;15.50;;;;;24.97;57.42;98302.50;5090918;27;45445;-68
2022/05/23 00:26:07;;;;;;;;;23.25;19.50;;;;;24.87;57.58;98301.00;5078999;27;45506;-69
2022/05/23 00:28:32;;;;;;;;;21.50;21.50;;;;;24.77;57.78;98308.44;5091261;27;45510;-68
2022/05/23 00:30:58;;;;;;;;;24.50;23.25;;;;;24.67;60.55;98322.09;5096442;27;45393;-68
2022/05/23 00:36:07;;;;;;;;;21.75;19.25;;;;;24.45;59.76;98312.84;5094464;27;45365;-68
2022/05/23 00:38:33;;;;;;;;;22.00;21.00;;;;;24.35;59.16;98309.47;5088460;27;45638;-68
2022/05/23 00:44:11;;;;;;;;;25.25;22.50;;;;;24.15;60.24;98316.16;5075552;28;45386;-68
2022/05/23 00:46:49;;;;;;;;;20.75;20.75;;;;;24.05;60.94;98302.84;5092291;27;45481;-68
2022/05/23 00:49:20;;;;;;;;;19.75;18.50;;;;;24.00;59.73;98302.50;5096165;27;45722;-69
2022/05/23 00:51:45;;;;;;;;;25.00;18.50;;;;;23.96;60.48;98295.78;5081355;27;45412;-70
2022/05/23 00:54:12;;;;;;;;;23.50;22.00;;;;;23.94;60.92;98297.81;5091801;27;45456;-68
2022/05/23 00:56:43;;;;;;;;;20.00;19.00;;;;;23.92;60.91;98291.75;5081230;27;45524;-69
2022/05/23 00:59:13;;;;;;;;;21.50;20.25;;;;;23.92;59.69;98287.19;5081692;27;46376;-71
2022/05/23 01:01:38;;;;;;;;;19.75;19.50;;;;;23.92;59.95;98284.50;5095963;27;45500;-69
2022/05/23 01:04:07;;;;;;;;;23.75;22.75;;;;;23.93;60.96;98282.66;5088220;27;45390;-68
2022/05/23 01:06:34;;;;;;;;;21.25;19.75;;;;;23.94;60.71;98279.78;5079468;27;45337;-68
2022/05/23 01:09:00;;;;;;;;;22.50;20.00;;;;;23.98;60.58;98289.19;5085920;27;46400;-68
2022/05/23 01:11:26;;;;;;;;;19.00;17.50;;;;;24.04;60.32;98281.47;5084314;27;45360;-68
2022/05/23 01:13:53;;;;;;;;;18.50;18.25;;;;;24.07;60.42;98286.53;5094577;27;45478;-68
2022/05/23 01:16:21;;;;;;;;;19.25;19.25;;;;;24.08;60.64;98299.84;5095528;27;45406;-68
2022/05/23 01:18:47;;;;;;;;;16.25;14.25;;;;;24.07;60.88;98294.63;5091001;27;45537;-68
2022/05/23 01:21:26;;;;;;;;;24.75;19.25;;;;;24.02;61.11;98284.34;5076441;27;45310;-68
2022/05/23 01:24:03;;;;;;;;;20.50;18.75;;;;;23.94;61.13;98289.72;5087855;27;45437;-68
2022/05/23 01:26:32;;;;;;;;;25.00;19.75;;;;;23.90;61.30;98289.22;5077202;27;45371;-68
2022/05/23 01:28:57;;;;;;;;;20.50;18.00;;;;;23.87;61.26;98305.69;5088596;27;46402;-69
2022/05/23 01:31:23;;;;;;;;;21.50;18.50;;;;;23.86;61.44;98308.53;5077347;27;45425;-69
2022/05/23 01:33:48;;;;;;;;;20.50;19.75;;;;;23.80;60.29;98293.03;5076175;27;45831;-68
2022/05/23 01:36:15;;;;;;;;;20.75;17.75;;;;;23.73;61.73;98290.19;5075956;27;45422;-69
2022/05/23 01:38:41;;;;;;;;;20.50;17.25;;;;;23.65;61.72;98271.31;5071147;28;47615;-68
2022/05/23 01:41:07;;;;;;;;;20.75;18.50;;;;;23.57;60.49;98274.84;5078683;27;45396;-69
2022/05/23 01:43:33;;;;;;;;;18.50;17.00;;;;;23.53;61.37;98275.31;5084380;27;45415;-69
2022/05/23 01:45:59;;;;;;;;;17.75;16.25;;;;;23.47;62.18;98268.69;5094470;27;45413;-68
2022/05/23 01:48:26;;;;;;;;;20.50;16.50;;;;;23.41;60.82;98269.38;5077822;27;45340;-69
2022/05/23 01:50:51;;;;;;;;;20.00;18.00;;;;;23.34;62.44;98281.78;5090909;27;45359;-69
2022/05/23 01:53:17;;;;;;;;;18.00;16.00;;;;;23.28;61.90;98274.38;5098014;27;45562;-69
2022/05/23 01:55:43;;;;;;;;;14.00;13.00;;;;;23.23;62.30;98268.63;5086911;27;45365;-69
2022/05/23 01:58:09;;;;;;;;;17.50;17.50;;;;;23.17;62.56;98261.19;5072796;27;47669;-69
2022/05/23 02:03:20;;;;;;;;;17.75;17.75;;;;;23.09;61.88;98267.41;5090196;27;45428;-69
2022/05/23 02:05:45;;;;;;;;;18.50;18.50;;;;;23.06;62.71;98270.41;5087726;27;45505;-68
2022/05/23 02:08:11;;;;;;;;;18.50;16.25;;;;;23.01;63.66;98279.94;5094995;27;45507;-68
2022/05/23 02:10:37;;;;;;;;;19.75;19.75;;;;;22.94;63.28;98269.84;5097205;27;45497;-69
2022/05/23 02:13:03;;;;;;;;;20.75;18.75;;;;;22.90;64.40;98265.78;5086034;27;45490;-68
2022/05/23 02:15:31;;;;;;;;;17.00;16.25;;;;;22.87;64.01;98276.03;5078113;28;45410;-68
2022/05/23 02:17:58;;;;;;;;;15.50;15.25;;;;;22.82;63.97;98279.19;5094978;27;45317;-69
2022/05/23 02:20:24;;;;;;;;;18.25;16.00;;;;;22.78;64.32;98285.06;5098725;27;45493;-68
2022/05/23 02:22:50;;;;;;;;;20.00;17.00;;;;;22.71;64.52;98279.41;5098371;27;45451;-68
2022/05/23 02:25:15;;;;;;;;;21.00;19.25;;;;;22.65;66.17;98277.34;5082672;27;45554;-68
2022/05/23 02:27:40;;;;;;;;;16.50;16.50;;;;;22.59;65.38;98291.44;5067883;27;45692;-68
2022/05/23 02:30:07;;;;;;;;;17.00;17.00;;;;;22.55;65.33;98284.69;5082716;27;45454;-68
2022/05/23 02:32:33;;;;;;;;;21.00;18.25;;;;;22.51;66.74;98281.47;5082037;27;45417;-68
2022/05/23 02:34:58;;;;;;;;;20.50;17.75;;;;;22.49;66.39;98251.22;5080234;27;45380;-68
2022/05/23 02:37:24;;;;;;;;;15.25;14.25;;;;;22.47;65.82;98249.69;5096067;27;46185;-68
2022/05/23 02:39:49;;;;;;;;;19.25;19.00;;;;;22.47;66.57;98222.84;5095188;27;45422;-69
2022/05/23 02:42:15;;;;;;;;;20.50;20.00;;;;;22.48;64.98;98209.25;5079081;27;45799;-68
2022/05/23 02:44:40;;;;;;;;;20.75;19.25;;;;;22.52;65.45;98239.31;5078632;27;45379;-68
2022/05/23 02:47:05;;;;;;;;;18.75;18.75;;;;;22.56;66.70;98263.03;5097317;27;45411;-69
2022/05/23 02:49:31;;;;;;;;;17.75;16.75;;;;;22.55;67.42;98274.78;5097112;27;45209;-69
2022/05/23 02:51:56;;;;;;;;;27.00;23.50;;;;;22.48;69.17;98262.97;5084709;27;45384;-69
2022/05/23 02:54:22;;;;;;;;;22.50;20.75;;;;;22.36;69.70;98255.34;5091681;27;45574;-68
2022/05/23 02:56:47;;;;;;;;;20.25;18.00;;;;;22.23;70.01;98231.59;5082493;27;45369;-68
2022/05/23 02:59:12;;;;;;;;;19.25;16.25;;;;;22.14;69.46;98232.50;5095971;27;45306;-69
2022/05/23 03:03:01;;;;;;;;;23.75;23.00;;;;;22.05;70.23;98246.88;5081557;27;45341;-69
2022/05/23 03:04:24;;;;;;;;;25.00;19.25;;;;;21.97;68.80;98261.00;5093361;27;45431;-68
2022/05/23 03:06:50;;;;;;;;;23.75;22.00;;;;;21.90;71.50;98268.00;5082898;27;45572;-68
2022/05/23 03:09:16;;;;;;;;;21.25;20.75;;;;;21.83;70.55;98267.78;5096936;27;45341;-68
2022/05/23 03:11:41;;;;;;;;;29.00;25.25;;;;;21.79;73.29;98258.34;5073782;27;46930;-69
2022/05/23 03:14:07;;;;;;;;;23.50;23.25;;;;;21.76;73.16;98261.34;5065360;27;45592;-68
2022/05/23 03:16:32;;;;;;;;;22.50;21.75;;;;;21.75;72.74;98258.81;5092280;27;46206;-68
2022/05/23 03:18:58;;;;;;;;;25.25;20.75;;;;;21.72;72.69;98253.75;5092490;27;45467;-69
2022/05/23 03:26:59;;;;;;;;;21.25;20.50;;;;;21.65;72.75;98256.19;5079623;27;45779;-69
2022/05/23 03:29:26;;;;;;;;;23.75;21.50;;;;;21.61;73.29;98245.94;5096365;27;45401;-69
2022/05/23 03:31:52;;;;;;;;;22.75;21.50;;;;;21.54;74.05;98249.22;5087048;27;45360;-69
2022/05/23 03:34:17;;;;;;;;;23.50;23.00;;;;;21.50;73.64;98246.97;5088259;27;45412;-69
2022/05/23 03:36:43;;;;;;;;;22.00;21.25;;;;;21.43;73.23;98252.13;5090313;27;45681;-69
2022/05/23 03:39:09;;;;;;;;;22.50;20.75;;;;;21.41;74.95;98256.78;5084525;27;45412;-68
2022/05/23 03:41:34;;;;;;;;;25.50;23.75;;;;;21.38;75.49;98254.41;5083753;27;45364;-69
2022/05/23 03:44:00;;;;;;;;;24.00;21.75;;;;;21.35;75.07;98262.75;5094182;27;45317;-69
2022/05/23 03:46:27;;;;;;;;;21.00;16.00;;;;;21.33;76.32;98274.59;5096114;27;45549;-69
2022/05/23 03:48:52;;;;;;;;;28.50;27.50;;;;;21.27;75.58;98267.19;5092989;27;45319;-69
2022/05/23 03:51:18;;;;;;;;;21.25;20.25;;;;;21.23;75.38;98267.47;5082093;27;45380;-69
2022/05/23 03:53:44;;;;;;;;;24.75;23.50;;;;;21.17;74.93;98284.09;5091442;27;45464;-68
2022/05/23 03:56:10;;;;;;;;;23.25;22.75;;;;;21.11;76.75;98276.69;5080391;27;45944;-69
2022/05/23 03:58:36;;;;;;;;;23.00;22.00;;;;;21.07;76.32;98287.84;5089226;27;45513;-69
2022/05/23 04:01:20;;;;;;;;;24.25;23.25;;;;;21.03;76.59;98281.91;5092954;27;45432;-69
2022/05/23 04:03:46;;;;;;;;;24.75;23.50;;;;;21.01;74.60;98283.06;5076376;28;45448;-68
2022/05/23 04:06:12;;;;;;;;;23.50;22.50;;;;;20.96;75.52;98275.44;5089728;27;45850;-69
2022/05/23 04:08:37;;;;;;;;;27.50;24.50;;;;;20.93;77.35;98278.44;5084014;27;45408;-68
2022/05/23 04:11:04;;;;;;;;;23.50;23.50;;;;;20.90;75.90;98271.53;5089208;27;45465;-69
2022/05/23 04:13:30;;;;;;;;;26.00;25.25;;;;;20.87;76.58;98279.03;5094506;27;45527;-68
2022/05/23 04:15:56;;;;;;;;;27.25;22.50;;;;;20.85;75.94;98268.44;5077519;27;45907;-68
2022/05/23 04:18:21;;;;;;;;;23.25;21.75;;;;;20.87;76.80;98271.00;5084768;27;45606;-68
2022/05/23 04:20:47;;;;;;;;;23.25;22.00;;;;;20.88;76.47;98261.97;5077686;27;45463;-68
2022/05/23 04:23:13;;;;;;;;;24.75;22.75;;;;;20.92;75.99;98260.69;5081394;27;45444;-68
2022/05/23 04:25:40;;;;;;;;;24.50;23.00;;;;;20.94;76.18;98265.91;5076874;27;45431;-69
2022/05/23 04:28:06;;;;;;;;;26.50;25.50;;;;;20.95;76.85;98263.03;5084670;27;45446;-68
2022/05/23 04:30:31;;;;;;;;;28.50;25.00;;;;;20.95;76.71;98272.94;5076986;27;45515;-68
2022/05/23 04:35:40;;;;;;;;;26.00;25.50;;;;;20.97;76.69;98274.47;5075807;28;45673;-69
2022/05/23 04:38:06;;;;;;;;;28.50;23.00;;;;;20.97;77.21;98266.41;5090306;27;45381;-68
2022/05/23 04:40:31;;;;;;;;;25.25;23.50;;;;;20.97;76.67;98273.63;5094996;27;45469;-69
2022/05/23 04:42:57;;;;;;;;;28.50;25.25;;;;;20.96;77.67;98270.09;5093487;27;45515;-68
2022/05/23 04:45:22;;;;;;;;;27.00;24.00;;;;;20.95;77.35;98256.88;5082336;27;45752;-68
2022/05/23 04:50:33;;;;;;;;;33.25;26.25;;;;;20.95;76.66;98262.22;5075707;28;45438;-69
2022/05/23 04:53:01;;;;;;;;;28.75;26.50;;;;;20.95;76.12;98257.69;5087241;27;45432;-69
2022/05/23 04:55:27;;;;;;;;;30.50;27.50;;;;;20.94;78.16;98256.03;5083552;27;45418;-69
2022/05/23 04:57:53;;;;;;;;;25.25;20.50;;;;;20.94;77.63;98249.81;5082305;27;45539;-68
2022/05/23 05:00:20;;;;;;;;;26.50;25.00;;;;;20.96;77.07;98256.69;5095823;27;45499;-68
2022/05/23 05:02:47;;;;;;;;;23.00;22.00;;;;;20.96;77.63;98262.06;5091838;27;45575;-68
2022/05/23 05:05:14;;;;;;;;;25.75;20.00;;;;;20.95;77.60;98260.34;5075899;27;46187;-68
2022/05/23 05:07:39;;;;;;;;;24.50;22.50;;;;;20.94;78.45;98258.69;5090764;27;45456;-69
2022/05/23 05:10:05;;;;;;;;;29.00;27.25;;;;;20.93;78.26;98266.88;5071894;27;45345;-66
2022/05/23 05:12:31;;;;;;;;;27.50;24.00;;;;;20.91;78.98;98275.06;5093266;27;45375;-65
2022/05/23 05:14:58;;;;;;;;;23.00;21.75;;;;;20.93;78.08;98269.56;5083880;27;45375;-66
2022/05/23 05:17:24;;;;;;;;;27.75;24.75;;;;;21.00;78.04;98262.59;5084247;27;45609;-66
2022/05/23 05:19:50;;;;;;;;;17.50;16.00;;;;;21.06;78.43;98270.91;5084131;27;45562;-66
2022/05/23 05:22:15;;;;;;;;;26.00;24.75;;;;;21.12;78.17;98266.78;5079358;27;45470;-66
2022/05/23 05:24:41;;;;;;;;;23.25;22.50;;;;;21.16;77.79;98278.91;5065378;28;45510;-64
2022/05/23 05:27:06;;;;;;;;;23.50;22.75;;;;;21.16;77.48;98279.75;5082667;27;45590;-64
2022/05/23 05:29:31;;;;;;;;;22.50;21.25;;;;;21.17;76.83;98261.81;5083928;27;45478;-63
2022/05/23 05:32:16;;;;;;;;;28.25;25.50;;;;;21.18;76.57;98253.63;5091780;27;45454;-64
2022/05/23 05:34:50;;;;;;;;;22.75;22.25;;;;;21.25;76.20;98267.31;5078558;27;45494;-64
2022/05/23 05:37:25;;;;;;;;;25.25;23.50;;;;;21.32;75.88;98268.41;5092943;27;45549;-64
2022/05/23 05:39:53;;;;;;;;;20.50;20.25;;;;;21.39;75.57;98277.53;5071128;27;45442;-64
2022/05/23 05:42:27;;;;;;;;;25.75;22.50;;;;;21.44;75.82;98280.63;5082671;27;45527;-64
2022/05/23 05:45:01;;;;;;;;;22.25;19.25;;;;;21.48;75.14;98279.31;5089411;27;46283;-64
2022/05/23 05:47:30;;;;;;;;;24.75;23.50;;;;;21.52;75.43;98282.53;5083698;27;45455;-64
2022/05/23 05:50:01;;;;;;;;;22.50;19.50;;;;;21.58;75.00;98290.00;5091296;27;45455;-63
2022/05/23 05:52:31;;;;;;;;;21.50;20.00;;;;;21.64;74.70;98301.94;5092301;27;45496;-63
2022/05/23 05:54:57;;;;;;;;;22.25;20.00;;;;;21.71;74.14;98286.94;5086853;27;46629;-63
2022/05/23 05:57:24;;;;;;;;;24.00;23.00;;;;;21.73;73.53;98298.38;5077828;27;45515;-63
2022/05/23 05:59:50;;;;;;;;;30.50;27.00;;;;;21.72;72.86;98292.16;5087097;27;45557;-63
2022/05/23 06:02:16;;;;;;;;;24.50;21.50;;;;;21.68;72.86;98290.75;5079609;27;45600;-64
2022/05/23 06:04:42;;;;;;;;;21.50;21.50;;;;;21.69;72.79;98284.41;5063372;27;46133;-64
2022/05/23 06:12:35;;;;;;;;;23.00;21.50;;;;;21.86;71.80;98288.94;5090812;27;45484;-59
2022/05/23 06:15:00;;;;;;;;;26.25;22.75;;;;;21.89;72.35;98283.28;5088192;27;45518;-68
2022/05/23 06:17:26;;;;;;;;;26.75;21.50;;;;;21.93;71.50;98278.44;5091410;27;45546;-68
2022/05/23 06:19:51;;;;;;;;;18.25;18.25;;;;;22.00;71.75;98276.00;5073657;28;45444;-69
2022/05/23 06:22:17;;;;;;;;;20.25;17.50;;;;;22.01;71.30;98259.75;5080406;27;45401;-68
2022/05/23 06:24:44;;;;;;;;;23.50;21.50;;;;;22.03;71.04;98263.13;5064236;27;47224;-67
2022/05/23 06:27:11;;;;;;;;;22.00;20.25;;;;;22.11;71.20;98278.47;5079312;27;45509;-67
2022/05/23 06:29:38;;;;;;;;;17.75;16.75;;;;;22.18;70.70;98271.47;5064076;27;45571;-67
2022/05/23 06:32:04;;;;;;;;;21.00;18.75;;;;;22.21;70.28;98263.97;5063719;27;45557;-66
2022/05/23 06:34:30;;;;;;;;;21.25;18.75;;;;;22.29;70.08;98260.47;5068435;27;47252;-67
2022/05/23 06:36:56;;;;;;;;;25.75;19.50;;;;;22.35;69.50;98254.50;5083068;27;45536;-67
2022/05/23 06:39:21;;;;;;;;;20.25;19.25;;;;;22.35;69.53;98246.44;5083301;27;45446;-67
2022/05/23 06:41:47;;;;;;;;;19.25;18.25;;;;;22.36;69.24;98226.63;5082597;27;45520;-67
2022/05/23 06:44:13;;;;;;;;;21.00;18.00;;;;;22.42;69.45;98220.66;5085528;27;47570;-67
2022/05/23 06:46:38;;;;;;;;;22.50;20.50;;;;;22.49;69.64;98235.09;5079088;27;45460;-67
2022/05/23 06:49:06;;;;;;;;;22.00;20.50;;;;;22.58;68.93;98204.63;5087606;27;45495;-67
2022/05/23 06:51:33;;;;;;;;;26.00;22.25;;;;;22.64;68.36;98217.41;5072639;27;45955;-67
2022/05/23 06:53:58;;;;;;;;;25.75;23.50;;;;;22.75;68.23;98202.88;5092255;27;45644;-67
2022/05/23 06:56:24;;;;;;;;;22.50;22.00;;;;;22.85;68.12;98183.94;5082913;27;45445;-67
2022/05/23 06:58:49;;;;;;;;;26.25;23.00;;;;;22.93;67.73;98197.44;5069177;27;45369;-67
2022/05/23 07:01:16;;;;;;;;;24.50;22.00;;;;;23.02;68.01;98166.03;5083736;27;45794;-68
2022/05/23 07:03:41;;;;;;;;;23.50;21.00;;;;;23.06;67.54;98176.31;5083634;27;45650;-69
2022/05/23 07:14:20;;;;;;;;;25.00;23.25;;;;;23.07;66.31;98210.25;5080262;27;45762;-68
2022/05/23 07:16:46;;;;;;;;;21.75;20.25;;;;;23.00;67.54;98208.38;5072598;27;45549;-68
2022/05/23 07:19:11;;;;;;;;;18.25;15.75;;;;;22.92;67.89;98211.88;5080525;27;45425;-68
2022/05/23 07:21:36;;;;;;;;;20.75;19.25;;;;;22.86;67.72;98201.75;5078381;27;45512;-67
2022/05/23 07:24:02;;;;;;;;;21.00;17.75;;;;;22.84;67.83;98203.75;5083006;27;46573;-67
2022/05/23 07:26:28;;;;;;;;;24.00;22.75;;;;;22.83;67.83;98208.28;5081931;27;45424;-68
2022/05/23 07:28:53;;;;;;;;;23.00;22.25;;;;;22.83;67.47;98202.91;5070592;27;45420;-67
2022/05/23 07:31:19;;;;;;;;;20.75;20.00;;;;;22.85;67.92;98208.13;5077845;27;45605;-67
2022/05/23 07:33:45;;;;;;;;;22.00;21.50;;;;;22.86;67.65;98210.66;5079476;27;45425;-68
2022/05/23 07:36:13;;;;;;;;;21.75;21.25;;;;;22.85;67.36;98217.03;5086340;27;45468;-67
2022/05/23 07:38:39;;;;;;;;;23.50;22.00;;;;;22.80;67.30;98216.66;5087567;27;45556;-67
2022/05/23 07:41:09;;;;;;;;;19.25;19.25;;;;;22.80;66.75;98203.22;5083155;27;45559;-67
2022/05/23 07:43:37;;;;;;;;;22.50;21.75;;;;;22.82;66.16;98205.75;5089530;27;45626;-67
2022/05/23 07:46:15;;;;;;;;;22.25;19.25;;;;;22.85;66.50;98217.03;5086065;27;45332;-67
2022/05/23 07:48:43;;;;;;;;;25.25;21.75;;;;;22.93;66.63;98224.31;5081209;27;45439;-67
2022/05/23 07:51:14;;;;;;;;;18.00;18.00;;;;;23.01;66.63;98210.06;5073013;27;45541;-68
2022/05/23 08:01:52;;;;;;;;;21.50;20.50;;;;;23.36;64.53;98195.53;5080088;27;45359;-64
2022/05/23 08:04:19;;;;;;;;;16.50;16.50;;;;;23.42;63.94;98186.81;5078796;27;45661;-64
2022/05/23 08:06:45;;;;;;;;;14.75;14.25;;;;;23.50;63.88;98181.44;5058593;27;45704;-64
2022/05/23 08:09:11;;;;;;;;;19.00;19.00;;;;;23.60;63.38;98166.03;5083245;27;45488;-65
2022/05/23 08:11:39;;;;;;;;;21.75;19.00;;;;;23.76;63.14;98166.03;5078825;27;45850;-64
2022/05/23 08:14:04;;;;;;;;;14.50;14.50;;;;;23.93;62.74;98159.66;5077954;27;46748;-64
2022/05/23 08:16:30;;;;;;;;;15.25;12.00;;;;;24.10;62.12;98157.78;5082477;27;45726;-64
2022/05/23 08:18:56;;;;;;;;;21.25;19.50;;;;;24.25;61.53;98148.03;5066010;27;45648;-64
2022/05/23 08:21:21;;;;;;;;;15.50;14.00;;;;;24.43;61.25;98131.66;5084859;27;45514;-64
2022/05/23 08:23:47;;;;;;;;;17.50;16.75;;;;;24.58;60.87;98127.22;5080031;27;45472;-65
2022/05/23 08:26:12;;;;;;;;;20.50;19.00;;;;;24.78;60.21;98119.56;5077122;27;45693;-65
2022/05/23 08:28:39;;;;;;;;;23.25;19.25;;;;;24.96;59.11;98124.72;5074004;27;45614;-64
2022/05/23 08:31:04;;;;;;;;;22.50;19.25;;;;;25.07;58.97;98116.22;5078798;27;45582;-65
2022/05/23 08:33:29;;;;;;;;;19.00;16.50;;;;;25.14;58.85;98097.44;5082635;27;46605;-65
2022/05/23 08:35:55;;;;;;;;;19.50;18.50;;;;;25.21;58.58;98101.97;5076699;27;45419;-64
2022/05/23 08:38:20;;;;;;;;;20.75;19.00;;;;;25.26;58.15;98110.38;5084905;27;45633;-65
2022/05/23 08:40:58;;;;;;;;;21.25;20.50;;;;;25.20;57.70;98126.41;5077116;27;45318;-65
2022/05/23 08:43:50;;;;;;;;;19.50;18.25;;;;;24.95;57.08;98137.38;5072336;27;46633;-65
2022/05/23 08:46:32;;;;;;;;;16.00;15.50;;;;;24.68;57.97;98144.00;5079456;27;45458;-65
2022/05/23 08:49:00;;;;;;;;;18.00;15.75;;;;;24.49;58.51;98132.78;5079585;27;45448;-65
2022/05/23 08:51:41;;;;;;;;;16.75;15.25;;;;;24.33;58.00;98147.97;5082110;27;45576;-65
2022/05/23 08:54:20;;;;;;;;;18.50;17.75;;;;;24.21;58.54;98118.88;5075331;27;46268;-65
2022/05/23 08:56:58;;;;;;;;;17.60;17.20;;;;;24.10;58.41;98122.78;5080179;27;46502;-65
2022/05/23 08:59:47;;;;;;;;;14.50;14.50;;;;;24.03;58.36;98097.53;5023915;27;45586;-65
2022/05/23 09:02:36;;;;;;;;;15.00;10.00;;;;;23.99;57.81;98082.72;5055800;27;45589;-64
2022/05/23 09:05:13;;;;;;;;;18.75;17.50;;;;;23.96;57.98;98081.19;5084131;27;46690;-65
2022/05/23 09:07:47;;;;;;;;;17.00;17.00;;;;;23.95;58.20;98092.16;5078875;27;45415;-65
2022/05/23 09:10:28;;;;;;;;;16.50;15.25;;;;;23.94;56.46;98120.94;5075790;27;45460;-65
2022/05/23 09:12:53;;;;;;;;;19.75;14.50;;;;;24.07;55.00;98073.78;5065340;27;45587;-65
2022/05/23 09:15:20;;;;;;;;;17.25;15.50;;;;;24.10;55.21;98065.38;5074557;27;46038;-65
2022/05/23 09:17:53;;;;;;;;;12.00;11.40;;;;;24.12;54.46;98060.66;5081072;27;45535;-65
2022/05/23 09:20:27;;;;;;;;;14.50;13.25;;;;;24.11;54.78;98040.97;5075234;27;45334;-65
2022/05/23 09:22:58;;;;;;;;;12.25;12.00;;;;;24.14;53.62;98039.75;5082637;27;45537;-65
2022/05/23 09:25:25;;;;;;;;;17.00;16.25;;;;;24.27;54.21;98043.63;5081710;27;46252;-65
2022/05/23 09:28:21;;;;;;;;;16.20;14.60;;;;;24.40;53.15;98063.78;5079549;27;45521;-65
2022/05/23 09:31:00;;;;;;;;;15.00;14.00;;;;;24.49;53.17;98079.72;5078526;27;45555;-65
2022/05/23 09:33:29;;;;;;;;;14.75;12.75;;;;;24.53;52.63;98064.06;5076257;27;45409;-65
2022/05/23 09:36:09;;;;;;;;;16.00;12.75;;;;;24.59;52.96;98052.59;5074627;27;45850;-65
2022/05/23 09:38:54;;;;;;;;;15.00;15.00;;;;;24.64;52.03;98039.41;5072895;27;46304;-65
2022/05/23 09:50:05;;;;;;;;;11.80;11.60;;;;;24.66;51.13;98051.69;5077281;27;45411;-65
2022/05/23 09:52:49;;;;;;;;;17.25;16.00;;;;;24.64;50.63;98056.41;5074092;27;45543;-65
2022/05/23 09:55:28;;;;;;;;;12.75;12.00;;;;;24.59;50.95;98056.13;5077279;27;45458;-65
2022/05/23 09:57:57;;;;;;;;;13.00;13.00;;;;;24.58;50.70;98049.06;5086526;27;46280;-65
2022/05/23 10:00:22;;;;;;;;;13.80;12.60;;;;;24.58;50.71;98067.91;5076120;27;45433;-65
2022/05/23 10:03:01;;;;;;;;;15.75;11.25;;;;;24.60;50.44;98033.53;5081889;27;45361;-65
2022/05/23 10:05:30;;;;;;;;;9.00;9.00;;;;;24.64;49.90;98037.53;5064745;27;45596;-65
2022/05/23 10:08:02;;;;;;;;;14.25;13.75;;;;;24.74;50.16;98026.56;5071971;27;46299;-65
2022/05/23 10:10:33;;;;;;;;;10.40;9.80;;;;;24.80;49.49;98030.41;5082276;27;45560;-65
2022/05/23 10:13:23;;;;;;;;;11.50;10.50;;;;;24.82;49.69;98021.09;5063646;27;45505;-65
2022/05/23 10:15:55;;;;;;;;;11.25;10.75;;;;;24.86;49.86;98006.25;5077261;27;45545;-65
2022/05/23 10:18:25;;;;;;;;;14.25;13.00;;;;;24.94;49.45;98003.53;5073905;27;47233;-67
2022/05/23 10:20:52;;;;;;;;;14.00;13.60;;;;;24.99;49.05;97993.03;5079925;27;45393;-66
2022/05/23 10:23:30;;;;;;;;;10.00;10.00;;;;;25.08;49.46;97984.91;5074178;27;45673;-66
2022/05/23 10:26:15;;;;;;;;;9.25;9.00;;;;;25.14;49.33;97987.69;5082350;27;45627;-66
2022/05/23 10:28:53;;;;;;;;;12.50;10.25;;;;;25.17;49.01;97960.34;5069944;27;45733;-66
2022/05/23 10:31:33;;;;;;;;;12.60;12.60;;;;;25.19;48.23;97957.47;5079828;27;45422;-66
2022/05/23 10:34:11;;;;;;;;;8.25;6.50;;;;;25.18;48.08;97956.66;5016927;28;46592;-66
2022/05/23 10:36:40;;;;;;;;;8.75;8.00;;;;;25.21;48.77;97950.06;5025079;28;45431;-66
2022/05/23 10:42:17;;;;;;;;;14.60;12.40;;;;;25.41;47.76;97961.16;5023069;28;45632;-65
2022/05/23 10:45:00;;;;;;;;;10.50;10.50;;;;;25.51;46.56;97950.94;5020906;28;45595;-66
2022/05/23 10:47:57;;;;;;;;;13.00;13.00;;;;;25.61;47.18;97932.63;5012735;28;45599;-66
2022/05/23 10:50:56;;;;;;;;;14.50;11.50;;;;;25.75;47.20;97949.88;5007000;28;45770;-66
2022/05/23 10:53:42;;;;;;;;;9.60;9.60;;;;;25.73;46.21;97963.56;5024578;28;45482;-66
2022/05/23 10:56:46;;;;;;;;;8.00;7.50;;;;;25.63;46.59;97946.81;5016490;28;45434;-65
2022/05/23 10:59:20;;;;;;;;;12.00;10.00;;;;;25.59;46.54;97940.06;4984782;28;45682;-66
2022/05/23 11:02:04;;;;;;;;;7.75;6.75;;;;;25.58;46.27;97920.34;4987051;28;45685;-66
2022/05/23 11:04:35;;;;;;;;;12.80;11.60;;;;;25.61;46.12;97943.41;5008965;28;45589;-65
2022/05/23 11:07:32;;;;;;;;;11.00;11.00;;;;;25.60;46.24;97906.66;5010524;28;45566;-65
2022/05/23 11:10:13;;;;;;;;;12.75;11.00;;;;;25.58;45.67;97922.19;5028263;28;45498;-66
2022/05/23 11:12:57;;;;;;;;;9.50;9.50;;;;;25.61;45.82;97916.44;5021699;28;45496;-66
2022/05/23 11:15:40;;;;;;;;;13.60;12.40;;;;;25.73;45.42;97956.31;5003824;28;45404;-66
2022/05/23 11:18:21;;;;;;;;;11.50;10.00;;;;;25.78;44.82;97922.50;5020698;28;45434;-66
2022/05/23 11:20:52;;;;;;;;;12.75;10.75;;;;;25.72;45.32;97929.47;5024130;28;45514;-66
2022/05/23 11:23:36;;;;;;;;;14.00;12.50;;;;;25.68;44.99;97920.06;5020665;28;45566;-66
2022/05/23 11:26:09;;;;;;;;;10.60;9.00;;;;;25.67;45.11;97929.19;5021070;28;45533;-66
2022/05/23 11:34:40;;;;;;;;;10.50;10.25;;;;;25.78;44.35;97923.34;5018661;28;45800;-67
2022/05/23 11:39:56;;;;;;;;;16.25;13.50;;;;;25.78;44.52;97904.44;5015071;28;45425;-67
2022/05/23 11:42:24;;;;;;;;;11.00;11.00;;;;;25.78;44.06;97903.59;5032703;28;46102;-67
2022/05/23 11:44:50;;;;;;;;;14.50;12.25;;;;;25.77;44.60;97934.34;5035734;28;46241;-67
2022/05/23 11:47:18;;;;;;;;;9.00;8.25;;;;;25.81;44.35;97901.34;5034992;28;45375;-68
2022/05/23 11:49:59;;;;;;;;;9.50;6.25;;;;;25.77;44.52;97932.47;5033993;28;45462;-66
2022/05/23 11:52:31;;;;;;;;;15.50;11.50;;;;;25.71;44.57;97907.06;5033369;28;45469;-67
2022/05/23 11:54:56;;;;;;;;;7.75;6.75;;;;;25.69;45.04;97898.28;5034172;28;46713;-66
2022/05/23 11:57:35;;;;;;;;;14.00;12.00;;;;;25.71;44.58;97898.13;5033965;28;45401;-66
2022/05/23 12:00:08;;;;;;;;;11.75;11.75;;;;;25.73;44.81;97898.75;5034747;28;45482;-66
2022/05/23 12:02:38;;;;;;;;;12.25;11.25;;;;;25.77;45.11;97881.19;5028594;28;45386;-66
2022/05/23 12:05:12;;;;;;;;;14.50;12.00;;;;;25.81;44.40;97904.06;5015748;28;47326;-66
2022/05/23 12:07:37;;;;;;;;;10.00;10.00;;;;;25.99;44.28;97938.78;5008080;28;45426;-66
2022/05/23 12:10:28;;;;;;;;;13.75;11.50;;;;;26.23;44.48;97919.56;5016432;28;45451;-66
2022/05/23 12:13:30;;;;;;;;;1.75;1.75;;;;;26.29;44.22;97877.47;5016106;28;45441;-66
2022/05/23 12:15:58;;;;;;;;;11.50;11.50;;;;;26.36;43.92;97891.88;5035002;28;45434;-66
2022/05/23 12:18:23;;;;;;;;;7.60;7.60;;;;;26.41;44.08;97901.09;5004160;28;46034;-66
2022/05/23 12:21:01;;;;;;;;;13.50;9.75;;;;;26.47;44.29;97885.97;5024390;28;45375;-66
2022/05/23 12:23:39;;;;;;;;;13.00;10.25;;;;;26.52;44.14;97951.09;5012377;28;45533;-66
2022/05/23 12:26:29;;;;;;;;;11.00;9.50;;;;;26.57;44.06;97893.75;5014789;28;45466;-66
2022/05/23 12:29:00;;;;;;;;;12.20;9.20;;;;;26.67;43.66;97868.06;5014879;28;45389;-66
2022/05/23 12:31:33;;;;;;;;;14.20;9.40;;;;;26.73;43.59;97921.38;5014770;28;45450;-66
2022/05/23 12:34:01;;;;;;;;;14.25;12.25;;;;;26.77;43.67;97892.94;5013825;28;45500;-66